This is the latest recevied weather packets stored in our database for station/object WC4PEM-7. If no packets are shown the sender has not sent any weather packets the latest 10 day(s).
| Time | Temp. | Humidity | Pressure | Rain* | Wind** | Luminosity | Snow |
|---|---|---|---|---|---|---|---|
| 1777984113 | 20.56° C | 86% | 1015.8 hPa | 0 mm | - | - | - |
| 1777983813 | 20.56° C | 86% | 1016 hPa | 0 mm | - | - | - |
| 1777983525 | 20° C | 87% | 1016 hPa | 0 mm | - | - | - |
| 1777983513 | 20.56° C | 86% | 1016.1 hPa | 0 mm | - | - | - |
| 1777983213 | 20° C | 87% | 1016 hPa | 0 mm | - | - | - |
| 1777982913 | 20° C | 87% | 1016 hPa | 0 mm | - | - | - |
| 1777982613 | 20° C | 87% | 1016 hPa | 0 mm | - | - | - |
| 1777982427 | 19.44° C | 89% | 1015.5 hPa | 0 mm | - | - | - |
| 1777982313 | 20° C | 88% | 1015.9 hPa | 0 mm | - | - | - |
| 1777982013 | 19.44° C | 88% | 1015.8 hPa | 0 mm | - | - | - |
| 1777981713 | 19.44° C | 89% | 1015.5 hPa | 0 mm | - | - | - |
| 1777981413 | 19.44° C | 89% | 1015.5 hPa | 0 mm | - | - | - |
| 1777981113 | 19.44° C | 89% | 1015.4 hPa | 0 mm | - | - | - |
| 1777981097 | 19.44° C | 89% | 1015.2 hPa | 0 mm | - | - | - |
| 1777980813 | 19.44° C | 89% | 1015.2 hPa | 0 mm | - | - | - |
| 1777980513 | 18.89° C | 90% | 1015 hPa | 0 mm | - | - | - |
| 1777980213 | 18.89° C | 90% | 1015 hPa | 0 mm | - | - | - |
| 1777979913 | 18.89° C | 90% | 1014.9 hPa | 0 mm | - | - | - |
| 1777979715 | 18.89° C | 91% | 1014.9 hPa | 0 mm | - | - | - |
| 1777979613 | 18.89° C | 91% | 1014.9 hPa | 0 mm | - | - | - |
| 1777979594 | 18.33° C | 91% | 1014.9 hPa | 0 mm | - | - | - |
| 1777979313 | 18.89° C | 91% | 1014.9 hPa | 0 mm | - | - | - |
| 1777979286 | 18.33° C | 91% | 1014.8 hPa | 0 mm | - | - | - |
| 1777979013 | 18.33° C | 91% | 1014.8 hPa | 0 mm | - | - | - |
| 1777978713 | 18.33° C | 91% | 1014.9 hPa | 0 mm | - | - | - |
* Rain latest hour (hover to see other rain measurements)
** Current wind speed in m/s (hover to see current wind gust speed)